createdAt,value
2018-07-06T00:00:07.429Z,83.11
2018-07-06T00:02:53.900Z,82.63
2018-07-06T00:05:40.060Z,83.09
2018-07-06T00:08:26.625Z,83.25
2018-07-06T00:11:12.927Z,83.16
2018-07-06T00:13:59.301Z,83.27
2018-07-06T00:16:45.832Z,82.60
2018-07-06T00:19:32.012Z,84.57
2018-07-06T00:22:18.416Z,84.21
2018-07-06T00:25:04.800Z,85.14
2018-07-06T00:27:51.352Z,86.59
2018-07-06T00:30:37.716Z,86.07
2018-07-06T00:33:24.428Z,86.04
2018-07-06T00:36:10.776Z,86.38
2018-07-06T00:38:57.144Z,86.37
2018-07-06T00:41:43.780Z,85.57
2018-07-06T00:44:30.260Z,85.77
2018-07-06T00:47:16.776Z,85.40
2018-07-06T00:50:03.248Z,85.85
2018-07-06T00:52:49.724Z,85.82
2018-07-06T00:55:36.109Z,86.06
2018-07-06T00:58:24.120Z,85.50
2018-07-06T01:01:10.484Z,86.17
2018-07-06T01:03:57.028Z,86.91
2018-07-06T01:06:43.507Z,87.03
2018-07-06T01:09:29.800Z,86.93
2018-07-06T01:12:21.505Z,87.61
2018-07-06T01:15:13.284Z,87.63
2018-07-06T01:17:59.589Z,87.29
2018-07-06T01:20:46.012Z,87.42
2018-07-06T01:23:32.620Z,86.70
2018-07-06T01:26:19.300Z,86.03
2018-07-06T01:29:05.778Z,86.77
2018-07-06T01:31:52.339Z,86.81
2018-07-06T01:34:38.768Z,86.09
2018-07-06T01:37:25.291Z,86.95
2018-07-06T01:40:11.537Z,86.65
2018-07-06T01:42:58.053Z,86.77
2018-07-06T01:45:44.390Z,86.67
2018-07-06T01:48:30.813Z,86.68
2018-07-06T01:51:17.196Z,86.02
2018-07-06T01:54:03.350Z,86.54
2018-07-06T01:56:49.720Z,86.08
2018-07-06T01:59:36.221Z,86.96
2018-07-06T02:02:22.507Z,87.42
2018-07-06T02:05:08.956Z,86.92
2018-07-06T02:07:55.520Z,86.91
2018-07-06T02:10:41.763Z,86.98
2018-07-06T02:13:28.138Z,87.96
2018-07-06T02:16:14.508Z,87.85
2018-07-06T02:19:00.837Z,88.22
2018-07-06T02:21:47.232Z,88.42
2018-07-06T02:24:33.807Z,87.74
2018-07-06T02:27:19.945Z,88.28
2018-07-06T02:30:06.413Z,88.63
2018-07-06T02:32:52.771Z,88.53
2018-07-06T02:35:39.130Z,88.39
2018-07-06T02:38:25.670Z,87.99
2018-07-06T02:41:11.804Z,89.52
2018-07-06T02:43:58.340Z,90.79
2018-07-06T02:46:44.576Z,90.94
2018-07-06T02:49:30.929Z,90.03
2018-07-06T02:52:17.396Z,90.88
2018-07-06T02:55:03.774Z,91.83
2018-07-06T02:57:49.987Z,92.06
2018-07-06T03:00:36.549Z,91.81
2018-07-06T03:03:23.023Z,91.19
2018-07-06T03:06:09.408Z,90.56
2018-07-06T03:08:55.667Z,91.64
2018-07-06T03:11:42.192Z,91.51
2018-07-06T03:14:28.649Z,91.73
2018-07-06T03:17:15.053Z,91.59
2018-07-06T03:20:01.357Z,91.51
2018-07-06T03:22:47.479Z,91.07
2018-07-06T03:25:33.980Z,91.54
2018-07-06T03:28:20.479Z,91.28
2018-07-06T03:31:08.234Z,91.99
2018-07-06T03:33:54.692Z,92.01
2018-07-06T03:36:41.237Z,92.65
2018-07-06T03:39:27.389Z,92.14
2018-07-06T03:42:13.745Z,92.00
2018-07-06T03:45:00.108Z,91.95
2018-07-06T03:47:46.607Z,92.04
2018-07-06T03:50:33.237Z,92.08
2018-07-06T03:53:19.767Z,91.82
2018-07-06T03:56:06.141Z,91.80
2018-07-06T03:58:52.527Z,91.58
2018-07-06T04:01:38.892Z,91.21
2018-07-06T04:04:25.158Z,91.15
2018-07-06T04:07:11.633Z,92.05
2018-07-06T04:09:57.940Z,92.46
2018-07-06T04:12:44.302Z,91.88
2018-07-06T04:15:30.875Z,92.21
2018-07-06T04:18:17.153Z,92.01
2018-07-06T04:21:03.478Z,91.62
2018-07-06T04:23:49.830Z,90.68
2018-07-06T04:26:36.233Z,90.70
2018-07-06T04:29:22.796Z,92.44
2018-07-06T04:32:08.936Z,91.96
2018-07-06T04:34:55.495Z,91.25
2018-07-06T04:37:41.828Z,91.79
2018-07-06T04:40:28.119Z,91.01
2018-07-06T04:43:14.356Z,90.28
2018-07-06T04:46:00.655Z,90.66
2018-07-06T04:48:46.724Z,90.09
2018-07-06T04:51:33.183Z,89.43
2018-07-06T04:54:19.649Z,89.28
2018-07-06T04:57:05.736Z,89.56
2018-07-06T04:59:52.392Z,88.94
2018-07-06T05:02:38.663Z,87.94
2018-07-06T05:05:25.132Z,88.83
2018-07-06T05:08:11.472Z,87.77
2018-07-06T05:10:57.899Z,87.04
2018-07-06T05:13:44.390Z,87.00
2018-07-06T05:16:30.651Z,86.45
2018-07-06T05:19:17.010Z,87.22
2018-07-06T05:22:03.349Z,85.86
2018-07-06T05:24:49.780Z,86.02
2018-07-06T05:27:36.172Z,84.65
2018-07-06T05:30:16.679Z,84.94
2018-07-06T05:33:03.177Z,83.55
2018-07-06T05:35:49.624Z,84.68
2018-07-06T05:38:35.985Z,84.83
2018-07-06T05:41:22.100Z,84.34
2018-07-06T05:44:08.451Z,82.74
2018-07-06T05:46:54.721Z,82.45
2018-07-06T05:49:41.020Z,81.81
2018-07-06T05:52:27.481Z,82.12
2018-07-06T05:55:13.872Z,81.56
2018-07-06T05:58:00.096Z,81.58
2018-07-06T06:00:46.437Z,80.62
2018-07-06T06:03:32.716Z,80.52
2018-07-06T06:06:19.148Z,81.46
2018-07-06T06:08:46.856Z,81.25
2018-07-06T06:11:16.168Z,80.72
2018-07-06T06:13:45.541Z,80.55
2018-07-06T06:16:15.046Z,80.48
2018-07-06T06:18:44.425Z,79.74
2018-07-06T06:21:13.773Z,79.14
2018-07-06T06:23:43.159Z,79.59
2018-07-06T06:26:12.479Z,80.32
2018-07-06T06:28:41.829Z,78.92
2018-07-06T06:31:11.158Z,79.91
2018-07-06T06:33:40.549Z,79.02
2018-07-06T06:36:09.865Z,78.59
2018-07-06T06:38:39.189Z,77.62
2018-07-06T06:41:08.541Z,77.16
2018-07-06T06:43:37.892Z,77.25
2018-07-06T06:46:07.216Z,77.19
2018-07-06T06:48:36.730Z,77.37
2018-07-06T06:51:06.054Z,77.03
2018-07-06T06:53:35.368Z,78.56
2018-07-06T06:56:04.716Z,77.26
2018-07-06T06:58:34.091Z,76.75
2018-07-06T07:01:03.501Z,77.08
2018-07-06T07:03:32.800Z,77.00
2018-07-06T07:06:02.148Z,77.27
2018-07-06T07:08:31.499Z,76.68
2018-07-06T07:11:00.833Z,77.04
2018-07-06T07:13:30.175Z,76.41
2018-07-06T07:16:03.017Z,76.61
2018-07-06T07:18:32.371Z,77.50
2018-07-06T07:21:01.691Z,76.05
2018-07-06T07:23:31.012Z,76.86
2018-07-06T07:26:00.332Z,76.81
2018-07-06T07:28:29.680Z,76.36
2018-07-06T07:30:58.987Z,74.32
2018-07-06T07:33:28.336Z,75.35
2018-07-06T07:35:57.712Z,75.21
2018-07-06T07:38:27.552Z,73.60
2018-07-06T07:40:56.871Z,73.81
2018-07-06T07:43:26.252Z,74.27
2018-07-06T07:45:55.596Z,73.49
2018-07-06T07:48:24.896Z,72.42
2018-07-06T07:51:11.100Z,72.20
2018-07-06T07:54:52.649Z,72.37
2018-07-06T07:57:22.296Z,70.37
2018-07-06T07:59:53.130Z,71.35
2018-07-06T08:02:22.507Z,71.36
2018-07-06T08:04:52.845Z,70.19
2018-07-06T08:07:22.312Z,69.83
2018-07-06T08:09:51.692Z,68.71
2018-07-06T08:12:21.059Z,70.59
2018-07-06T08:14:50.635Z,67.78
2018-07-06T08:17:19.959Z,69.16
2018-07-06T08:19:49.275Z,68.88
2018-07-06T08:22:18.640Z,68.73
2018-07-06T08:24:47.964Z,68.46
2018-07-06T08:27:17.283Z,68.17
2018-07-06T08:29:46.600Z,66.94
2018-07-06T08:32:15.925Z,65.74
2018-07-06T08:35:02.344Z,65.87
2018-07-06T08:37:51.724Z,66.26
2018-07-06T08:40:22.133Z,65.54
2018-07-06T08:42:52.604Z,65.95
2018-07-06T08:45:22.015Z,66.04
2018-07-06T08:47:51.397Z,64.53
2018-07-06T08:50:20.753Z,65.78
2018-07-06T08:52:50.836Z,65.07
2018-07-06T08:55:20.433Z,63.54
2018-07-06T08:57:51.130Z,63.98
2018-07-06T09:00:20.390Z,63.11
2018-07-06T09:02:49.712Z,64.77
2018-07-06T09:05:19.044Z,62.23
2018-07-06T09:07:48.364Z,61.25
2018-07-06T09:10:17.689Z,61.34
2018-07-06T09:12:47.085Z,59.40
2018-07-06T09:15:16.405Z,59.34
2018-07-06T09:17:45.719Z,59.45
2018-07-06T09:20:15.187Z,59.50
2018-07-06T09:22:44.424Z,59.77
2018-07-06T09:25:13.751Z,60.97
2018-07-06T09:27:43.156Z,61.96
2018-07-06T09:30:12.483Z,63.74
2018-07-06T09:32:41.799Z,61.15
2018-07-06T09:35:11.158Z,62.38
2018-07-06T09:37:40.489Z,62.88
2018-07-06T09:40:10.384Z,62.82
2018-07-06T09:42:39.715Z,63.00
2018-07-06T09:45:09.047Z,63.45
2018-07-06T09:47:38.395Z,62.10
2018-07-06T09:50:07.717Z,63.28
2018-07-06T09:52:37.044Z,63.92
2018-07-06T09:55:06.408Z,65.84
2018-07-06T09:57:35.747Z,64.44
2018-07-06T10:00:05.729Z,66.13
2018-07-06T10:02:35.047Z,66.69
2018-07-06T10:05:04.412Z,66.21
2018-07-06T10:07:33.731Z,65.36
2018-07-06T10:10:03.061Z,64.48
2018-07-06T10:12:32.461Z,64.40
2018-07-06T10:15:01.795Z,63.13
2018-07-06T10:17:31.120Z,64.49
2018-07-06T10:20:00.472Z,63.34
2018-07-06T10:22:29.795Z,65.24
2018-07-06T10:25:03.004Z,65.65
2018-07-06T10:27:46.292Z,65.13
2018-07-06T10:30:28.784Z,63.33
2018-07-06T10:32:58.094Z,65.05
2018-07-06T10:35:27.409Z,64.28
2018-07-06T10:37:56.775Z,62.63
2018-07-06T10:40:26.111Z,63.54
2018-07-06T10:42:55.428Z,61.44
2018-07-06T10:45:24.747Z,61.32
2018-07-06T10:47:54.112Z,62.48
2018-07-06T10:50:23.525Z,61.89
2018-07-06T10:52:52.860Z,61.96
2018-07-06T10:55:22.168Z,61.97
2018-07-06T10:57:51.495Z,60.76
2018-07-06T11:00:20.834Z,61.77
2018-07-06T11:02:50.188Z,59.95
2018-07-06T11:05:19.556Z,61.55
2018-07-06T11:07:48.923Z,62.05
2018-07-06T11:10:18.349Z,58.87
2018-07-06T11:12:47.720Z,59.90
2018-07-06T11:15:17.053Z,58.78
2018-07-06T11:17:46.406Z,58.56
2018-07-06T11:20:15.729Z,58.76
2018-07-06T11:22:45.055Z,59.66
2018-07-06T11:25:14.458Z,60.68
2018-07-06T11:27:43.758Z,59.55
2018-07-06T11:30:13.094Z,62.63
2018-07-06T11:32:42.417Z,59.92
2018-07-06T11:35:11.736Z,60.39
2018-07-06T11:37:41.105Z,60.38
2018-07-06T11:40:10.510Z,57.76
2018-07-06T11:42:39.887Z,58.37
2018-07-06T11:45:09.367Z,58.33
2018-07-06T11:47:38.604Z,58.27
2018-07-06T11:50:07.943Z,55.70
2018-07-06T11:52:37.314Z,56.55
2018-07-06T11:55:06.375Z,56.71
2018-07-06T11:57:35.741Z,57.46
2018-07-06T12:00:05.164Z,56.10
2018-07-06T12:02:34.492Z,56.08
2018-07-06T12:05:03.886Z,54.93
2018-07-06T12:07:33.342Z,54.95
2018-07-06T12:10:02.664Z,54.52
2018-07-06T12:12:31.973Z,56.49
2018-07-06T12:15:01.341Z,56.26
2018-07-06T12:17:30.672Z,55.86
2018-07-06T12:19:59.996Z,56.84
2018-07-06T12:22:29.353Z,56.65
2018-07-06T12:24:58.712Z,55.43
2018-07-06T12:27:28.060Z,56.22
2018-07-06T12:29:57.394Z,55.37
2018-07-06T12:32:26.716Z,55.72
2018-07-06T12:34:56.044Z,53.71
2018-07-06T12:37:25.356Z,53.74
2018-07-06T12:39:54.838Z,51.00
2018-07-06T12:42:24.139Z,51.03
2018-07-06T12:44:53.476Z,50.95
2018-07-06T12:47:22.874Z,52.18
2018-07-06T12:49:52.205Z,52.14
2018-07-06T12:52:22.387Z,49.98
2018-07-06T12:54:51.696Z,50.28
2018-07-06T12:57:21.025Z,49.41
2018-07-06T12:59:50.430Z,51.85
2018-07-06T13:02:19.752Z,51.37
2018-07-06T13:04:49.287Z,50.36
2018-07-06T13:07:18.649Z,50.81
2018-07-06T13:09:47.980Z,51.00
2018-07-06T13:12:17.712Z,49.45
2018-07-06T13:14:47.040Z,50.09
2018-07-06T13:17:16.487Z,51.39
2018-07-06T13:19:45.851Z,52.04
2018-07-06T13:22:15.164Z,52.09
2018-07-06T13:24:44.526Z,49.81
2018-07-06T13:27:13.884Z,49.74
2018-07-06T13:29:43.216Z,50.21
2018-07-06T13:32:12.540Z,49.28
2018-07-06T13:34:41.869Z,50.37
2018-07-06T13:37:11.216Z,50.19
2018-07-06T13:39:40.631Z,48.63
2018-07-06T13:42:09.972Z,51.04
2018-07-06T13:44:39.383Z,50.08
2018-07-06T13:47:08.726Z,50.33
2018-07-06T13:49:38.068Z,50.02
2018-07-06T13:52:07.438Z,50.20
2018-07-06T13:54:36.902Z,47.03
2018-07-06T13:57:06.251Z,49.48
2018-07-06T13:59:35.585Z,50.96
2018-07-06T14:02:05.029Z,49.65
2018-07-06T14:04:34.437Z,47.95
2018-07-06T14:07:03.757Z,46.84
2018-07-06T14:09:33.111Z,46.12
2018-07-06T14:12:02.539Z,45.44
2018-07-06T14:14:32.062Z,46.35
2018-07-06T14:17:01.472Z,46.04
2018-07-06T14:19:30.865Z,48.12
2018-07-06T14:22:00.165Z,48.63
2018-07-06T14:24:29.525Z,50.19
2018-07-06T14:26:58.844Z,48.85
2018-07-06T14:29:27.904Z,49.48
2018-07-06T14:31:57.247Z,49.68
2018-07-06T14:34:26.561Z,47.08
2018-07-06T14:36:55.907Z,46.07
2018-07-06T14:39:25.251Z,47.52
2018-07-06T14:41:54.579Z,42.01
2018-07-06T14:44:23.875Z,41.02
2018-07-06T14:46:53.197Z,39.66
2018-07-06T14:49:22.539Z,39.17
2018-07-06T14:51:51.888Z,41.60
2018-07-06T14:54:21.216Z,41.18
2018-07-06T14:56:50.585Z,42.65
2018-07-06T14:59:19.919Z,44.70
2018-07-06T15:01:49.253Z,46.93
2018-07-06T15:04:18.597Z,47.17
2018-07-06T15:06:48.176Z,45.34
2018-07-06T15:09:17.450Z,43.37
2018-07-06T15:11:46.788Z,45.23
2018-07-06T15:14:16.131Z,44.33
2018-07-06T15:16:45.520Z,45.49
2018-07-06T15:19:14.840Z,48.43
2018-07-06T15:21:44.193Z,48.95
2018-07-06T15:24:13.572Z,46.66
2018-07-06T15:26:42.933Z,46.18
2018-07-06T15:29:12.336Z,48.29
2018-07-06T15:31:41.760Z,47.99
2018-07-06T15:34:11.076Z,48.88
2018-07-06T15:36:40.459Z,49.54
2018-07-06T15:39:09.800Z,50.72
2018-07-06T15:41:39.133Z,50.61
2018-07-06T15:44:08.463Z,48.41
2018-07-06T15:46:37.812Z,44.60
2018-07-06T15:49:07.265Z,40.20
2018-07-06T15:51:36.604Z,40.42
2018-07-06T15:54:05.959Z,38.22
2018-07-06T15:56:35.341Z,39.15
2018-07-06T15:59:04.652Z,39.30
2018-07-06T16:01:33.997Z,39.75
2018-07-06T16:04:04.468Z,39.34
2018-07-06T16:06:33.846Z,38.62
2018-07-06T16:09:03.207Z,40.40
2018-07-06T16:11:32.556Z,38.04
2018-07-06T16:14:01.909Z,36.80
2018-07-06T16:16:31.194Z,36.67
2018-07-06T16:19:00.542Z,35.21
2018-07-06T16:21:29.886Z,36.33
2018-07-06T16:23:59.361Z,35.37
2018-07-06T16:26:29.243Z,34.46
2018-07-06T16:28:58.780Z,33.51
2018-07-06T16:31:28.135Z,32.89
2018-07-06T16:33:57.425Z,32.50
2018-07-06T16:36:26.819Z,32.12
2018-07-06T16:38:56.074Z,32.26
2018-07-06T16:41:25.419Z,31.61
2018-07-06T16:43:54.829Z,32.00
2018-07-06T16:46:24.108Z,32.16
2018-07-06T16:48:53.447Z,31.45
2018-07-06T16:51:22.761Z,30.25
2018-07-06T16:53:52.088Z,28.60
2018-07-06T16:56:21.442Z,29.28
2018-07-06T16:58:50.789Z,30.95
2018-07-06T17:01:20.144Z,31.46
2018-07-06T17:03:49.482Z,32.71
2018-07-06T17:06:18.799Z,31.82
2018-07-06T17:08:48.129Z,31.28
2018-07-06T17:11:17.481Z,32.23
2018-07-06T17:13:46.851Z,32.00
2018-07-06T17:16:16.168Z,31.30
2018-07-06T17:18:45.479Z,30.73
2018-07-06T17:21:14.812Z,30.74
2018-07-06T17:23:44.130Z,31.80
2018-07-06T17:26:13.504Z,31.62
2018-07-06T17:28:42.887Z,32.27
2018-07-06T17:31:12.370Z,33.33
2018-07-06T17:33:41.692Z,32.63
2018-07-06T17:36:11.008Z,32.94
2018-07-06T17:38:40.075Z,32.68
2018-07-06T17:41:09.458Z,33.62
2018-07-06T17:43:38.804Z,33.68
2018-07-06T17:46:08.163Z,33.07
2018-07-06T17:48:37.600Z,34.36
2018-07-06T17:51:07.112Z,34.19
2018-07-06T17:53:36.432Z,35.02
2018-07-06T17:56:05.800Z,34.72
2018-07-06T17:58:35.128Z,34.27
2018-07-06T18:01:04.456Z,35.87
2018-07-06T18:03:33.783Z,36.89
2018-07-06T18:06:03.085Z,38.87
2018-07-06T18:08:32.419Z,39.68
2018-07-06T18:11:01.800Z,40.83
2018-07-06T18:13:31.107Z,43.27
2018-07-06T18:16:00.465Z,43.05
2018-07-06T18:18:30.049Z,42.88
2018-07-06T18:20:59.652Z,44.61
2018-07-06T18:23:29.171Z,44.18
2018-07-06T18:25:58.573Z,44.73
2018-07-06T18:28:27.888Z,44.69
2018-07-06T18:30:57.236Z,45.38
2018-07-06T18:33:26.624Z,46.24
2018-07-06T18:35:56.000Z,46.97
2018-07-06T18:38:25.323Z,46.69
2018-07-06T18:40:54.784Z,47.12
2018-07-06T18:43:24.088Z,47.11
2018-07-06T18:45:53.490Z,48.01
2018-07-06T18:48:23.225Z,48.54
2018-07-06T18:50:52.548Z,48.10
2018-07-06T18:53:21.856Z,48.46
2018-07-06T18:55:51.184Z,47.96
2018-07-06T18:58:20.606Z,48.93
2018-07-06T19:00:49.920Z,48.55
2018-07-06T19:03:19.268Z,50.50
2018-07-06T19:05:48.612Z,49.88
2018-07-06T19:08:17.950Z,51.13
2018-07-06T19:10:47.275Z,50.48
2018-07-06T19:13:16.600Z,50.58
2018-07-06T19:15:45.912Z,50.51
2018-07-06T19:18:15.313Z,51.70
2018-07-06T19:20:44.748Z,52.79
2018-07-06T19:23:14.122Z,53.45
2018-07-06T19:25:43.451Z,52.82
2018-07-06T19:28:12.824Z,53.22
2018-07-06T19:30:42.145Z,52.52
2018-07-06T19:33:11.529Z,52.85
2018-07-06T19:35:40.868Z,55.05
2018-07-06T19:38:10.184Z,53.45
2018-07-06T19:40:39.512Z,53.10
2018-07-06T19:43:08.872Z,56.29
2018-07-06T19:45:38.212Z,54.65
2018-07-06T19:48:07.288Z,55.92
2018-07-06T19:50:36.688Z,55.90
2018-07-06T19:53:06.242Z,58.68
2018-07-06T19:55:35.545Z,60.08
2018-07-06T19:58:04.891Z,60.66
2018-07-06T20:00:34.209Z,62.30
2018-07-06T20:03:03.531Z,63.40
2018-07-06T20:05:32.861Z,63.05
2018-07-06T20:08:02.260Z,62.29
2018-07-06T20:10:31.546Z,63.29
2018-07-06T20:13:00.950Z,62.09
2018-07-06T20:15:30.273Z,63.61
2018-07-06T20:17:59.610Z,65.45
2018-07-06T20:20:28.960Z,64.63
2018-07-06T20:22:58.294Z,64.28
2018-07-06T20:25:27.656Z,63.94
2018-07-06T20:27:57.009Z,62.40
2018-07-06T20:30:26.376Z,63.17
2018-07-06T20:32:55.701Z,62.76
2018-07-06T20:35:25.025Z,62.83
2018-07-06T20:37:54.373Z,63.84
2018-07-06T20:40:23.691Z,64.74
2018-07-06T20:42:53.088Z,62.65
2018-07-06T20:45:22.491Z,63.20
2018-07-06T20:47:51.804Z,63.70
2018-07-06T20:50:21.185Z,63.91
2018-07-06T20:52:50.486Z,65.00
2018-07-06T20:55:19.813Z,65.37
2018-07-06T20:57:49.172Z,65.20
2018-07-06T21:00:18.486Z,66.20
2018-07-06T21:02:47.819Z,66.64
2018-07-06T21:05:17.156Z,67.44
2018-07-06T21:07:46.583Z,67.57
2018-07-06T21:10:15.886Z,67.90
2018-07-06T21:12:45.222Z,67.90
2018-07-06T21:15:14.543Z,68.79
2018-07-06T21:17:43.932Z,68.16
2018-07-06T21:20:13.263Z,69.44
2018-07-06T21:22:42.585Z,69.38
2018-07-06T21:25:11.893Z,69.72
2018-07-06T21:27:41.232Z,70.27
2018-07-06T21:30:10.607Z,71.37
2018-07-06T21:32:39.887Z,70.93
2018-07-06T21:35:09.225Z,71.57
2018-07-06T21:37:38.597Z,71.26
2018-07-06T21:40:07.932Z,71.58
2018-07-06T21:42:37.257Z,72.07
2018-07-06T21:45:06.957Z,72.23
2018-07-06T21:47:36.268Z,72.58
2018-07-06T21:50:05.618Z,73.02
2018-07-06T21:52:35.100Z,73.74
2018-07-06T21:55:04.519Z,74.12
2018-07-06T21:57:34.008Z,73.96
2018-07-06T22:00:03.372Z,74.19
2018-07-06T22:02:32.696Z,73.36
2018-07-06T22:05:02.022Z,73.81
2018-07-06T22:07:31.340Z,74.24
2018-07-06T22:10:00.728Z,74.25
2018-07-06T22:12:30.015Z,76.11
2018-07-06T22:14:59.452Z,76.02
2018-07-06T22:17:28.812Z,77.02
2018-07-06T22:19:58.144Z,76.95
2018-07-06T22:22:27.447Z,78.11
2018-07-06T22:24:56.814Z,77.75
2018-07-06T22:27:26.112Z,77.78
2018-07-06T22:29:55.479Z,77.24
2018-07-06T22:32:24.875Z,76.76
2018-07-06T22:34:54.184Z,76.62
2018-07-06T22:37:23.524Z,76.48
2018-07-06T22:39:52.836Z,76.69
2018-07-06T22:42:22.156Z,76.84
2018-07-06T22:44:51.468Z,77.74
2018-07-06T22:47:20.784Z,77.55
2018-07-06T22:49:50.107Z,78.17
2018-07-06T22:52:19.420Z,78.02
2018-07-06T22:54:48.782Z,78.25
2018-07-06T22:57:18.097Z,78.04
2018-07-06T22:59:47.424Z,78.88
2018-07-06T23:02:16.761Z,78.87
2018-07-06T23:04:46.083Z,79.31
2018-07-06T23:07:15.387Z,79.39
2018-07-06T23:09:44.724Z,78.66
2018-07-06T23:12:14.097Z,78.80
2018-07-06T23:14:43.416Z,78.30
2018-07-06T23:17:12.780Z,78.20
2018-07-06T23:19:42.096Z,79.26
2018-07-06T23:22:11.755Z,78.08
2018-07-06T23:24:41.252Z,78.23
2018-07-06T23:27:10.575Z,78.79
2018-07-06T23:29:39.888Z,78.88
2018-07-06T23:32:09.276Z,78.82
2018-07-06T23:34:38.695Z,78.97
2018-07-06T23:37:08.018Z,79.76
2018-07-06T23:39:37.365Z,80.19
2018-07-06T23:42:06.711Z,79.59
2018-07-06T23:44:36.060Z,80.54
2018-07-06T23:47:05.577Z,80.17
2018-07-06T23:49:34.898Z,79.63
2018-07-06T23:52:04.302Z,80.06
2018-07-06T23:54:33.669Z,80.05
2018-07-06T23:57:02.968Z,79.33
2018-07-06T23:59:32.309Z,80.18
